Time;durP1;ratioP1;P1;durP2;ratioP2;P2;SDS_P1;SDS_P2;PMS_P1;PMS_P2;Temp;Humidity;BMP_temperature;BMP_pressure;BME280_temperature;BME280_humidity;BME280_pressure;Samples;Min_cycle;Max_cycle;Signal;HPM_P1;HPM_P2
2022/12/13 00:01:49;;;;;;;0.30;0.30;;;;;;;;;;1860279;77;26679;-36
2022/12/13 00:04:17;;;;;;;0.50;0.50;;;;;;;;;;1857292;77;26238;-41
2022/12/13 00:06:44;;;;;;;0.45;0.45;;;;;;;;;;1855092;77;26268;-38
2022/12/13 00:09:15;;;;;;;0.40;0.40;;;;;;;;;;1856748;77;26190;-35
2022/12/13 00:11:43;;;;;;;0.45;0.45;;;;;;;;;;1850027;77;26667;-37
2022/12/13 00:14:12;;;;;;;0.45;0.45;;;;;;;;;;1855731;77;26171;-36
2022/12/13 00:16:40;;;;;;;0.13;0.13;;;;;;;;;;1860415;77;26645;-37
2022/12/13 00:19:07;;;;;;;0.30;0.30;;;;;;;;;;1845142;77;26205;-38
2022/12/13 00:21:34;;;;;;;0.40;0.40;;;;;;;;;;1853848;77;26269;-34
2022/12/13 00:24:01;;;;;;;0.30;0.30;;;;;;;;;;1860166;77;26172;-35
2022/12/13 00:26:30;;;;;;;0.70;0.30;;;;;;;;;;1858342;77;26278;-36
2022/12/13 00:29:04;;;;;;;0.30;0.30;;;;;;;;;;1858967;77;26649;-41
2022/12/13 00:31:32;;;;;;;0.30;0.30;;;;;;;;;;1853276;77;26254;-35
2022/12/13 00:33:59;;;;;;;0.40;0.40;;;;;;;;;;1859143;77;26160;-34
2022/12/13 00:36:27;;;;;;;0.40;0.40;;;;;;;;;;1855050;77;26281;-35
2022/12/13 00:39:00;;;;;;;1.07;0.30;;;;;;;;;;1859803;77;26683;-35
2022/12/13 00:41:29;;;;;;;0.20;0.20;;;;;;;;;;1857237;77;26205;-35
2022/12/13 00:43:56;;;;;;;0.20;0.20;;;;;;;;;;1850846;77;26251;-36
2022/12/13 00:46:24;;;;;;;0.30;0.30;;;;;;;;;;1856918;77;26293;-35
2022/12/13 00:48:52;;;;;;;0.20;0.20;;;;;;;;;;1849648;77;26738;-40
2022/12/13 00:51:20;;;;;;;0.20;0.20;;;;;;;;;;1858206;77;26211;-35
2022/12/13 00:53:47;;;;;;;0.30;0.30;;;;;;;;;;1858391;76;26237;-39
2022/12/13 00:56:20;;;;;;;0.13;0.13;;;;;;;;;;1861137;76;26220;-36
2022/12/13 00:58:48;;;;;;;0.40;0.40;;;;;;;;;;1868596;76;26258;-34
2022/12/13 01:01:16;;;;;;;0.30;0.30;;;;;;;;;;1864446;75;26220;-36
2022/12/13 01:03:44;;;;;;;0.20;0.20;;;;;;;;;;1867722;75;26639;-38
2022/12/13 01:06:13;;;;;;;0.20;0.20;;;;;;;;;;1866367;75;26159;-36
2022/12/13 01:08:40;;;;;;;0.30;0.30;;;;;;;;;;1858036;77;26548;-35
2022/12/13 01:11:07;;;;;;;0.30;0.30;;;;;;;;;;1860025;77;26257;-37
2022/12/13 01:13:35;;;;;;;0.30;0.30;;;;;;;;;;1868414;76;26199;-35
2022/12/13 01:16:03;;;;;;;0.20;0.20;;;;;;;;;;1865238;77;26242;-34
2022/12/13 01:18:31;;;;;;;0.40;0.40;;;;;;;;;;1861184;76;26659;-37
2022/12/13 01:20:59;;;;;;;0.23;0.23;;;;;;;;;;1867545;77;26272;-37
2022/12/13 01:23:27;;;;;;;0.20;0.20;;;;;;;;;;1866730;77;26190;-39
2022/12/13 01:25:55;;;;;;;0.30;0.30;;;;;;;;;;1867253;77;26605;-37
2022/12/13 01:28:22;;;;;;;0.68;0.30;;;;;;;;;;1863899;76;26226;-35
2022/12/13 01:30:54;;;;;;;0.30;0.30;;;;;;;;;;1868469;76;26682;-41
2022/12/13 01:33:21;;;;;;;0.17;0.17;;;;;;;;;;1865115;76;26280;-37
2022/12/13 01:35:49;;;;;;;0.25;0.25;;;;;;;;;;1866600;76;26155;-35
2022/12/13 01:38:16;;;;;;;0.80;0.20;;;;;;;;;;1868461;76;26565;-37
2022/12/13 01:40:47;;;;;;;0.20;0.20;;;;;;;;;;1867813;76;26155;-35
2022/12/13 01:43:15;;;;;;;0.20;0.20;;;;;;;;;;1867017;76;26512;-36
2022/12/13 01:45:43;;;;;;;0.20;0.20;;;;;;;;;;1865550;76;26185;-35
2022/12/13 01:48:12;;;;;;;0.20;0.20;;;;;;;;;;1867623;76;26219;-38
2022/12/13 01:50:40;;;;;;;0.20;0.20;;;;;;;;;;1855312;76;26251;-39
2022/12/13 01:53:09;;;;;;;0.35;0.33;;;;;;;;;;1865764;76;26561;-37
2022/12/13 01:55:37;;;;;;;0.30;0.30;;;;;;;;;;1863439;77;26168;-39
2022/12/13 01:58:05;;;;;;;0.25;0.25;;;;;;;;;;1865660;77;26211;-35
2022/12/13 02:00:34;;;;;;;0.20;0.20;;;;;;;;;;1864720;77;26226;-38
2022/12/13 02:03:02;;;;;;;1.35;0.20;;;;;;;;;;1860782;77;26344;-35
2022/12/13 02:05:42;;;;;;;0.20;0.20;;;;;;;;;;1864070;77;26269;-36
2022/12/13 02:08:10;;;;;;;0.13;0.13;;;;;;;;;;1864630;76;26574;-44
2022/12/13 02:10:38;;;;;;;0.23;0.23;;;;;;;;;;1863719;77;26202;-35
2022/12/13 02:13:05;;;;;;;0.20;0.20;;;;;;;;;;1862083;77;26619;-36
2022/12/13 02:15:34;;;;;;;0.20;0.20;;;;;;;;;;1859365;77;26597;-37
2022/12/13 02:18:06;;;;;;;0.10;0.10;;;;;;;;;;1866067;75;26641;-38
2022/12/13 02:20:37;;;;;;;0.30;0.30;;;;;;;;;;1861024;75;26189;-35
2022/12/13 02:23:12;;;;;;;0.20;0.20;;;;;;;;;;1860819;77;26626;-36
2022/12/13 02:25:41;;;;;;;0.30;0.30;;;;;;;;;;1855150;77;26209;-35
2022/12/13 02:28:27;;;;;;;0.30;0.30;;;;;;;;;;1862835;77;26299;-37
2022/12/13 02:30:56;;;;;;;0.30;0.30;;;;;;;;;;1861939;75;26233;-41
2022/12/13 02:33:25;;;;;;;0.37;0.30;;;;;;;;;;1862239;76;26160;-36
2022/12/13 02:36:03;;;;;;;0.25;0.20;;;;;;;;;;1865925;77;26159;-35
2022/12/13 02:38:34;;;;;;;0.25;0.20;;;;;;;;;;1836804;77;26705;-48
2022/12/13 02:41:06;;;;;;;0.20;0.20;;;;;;;;;;1856036;77;26682;-35
2022/12/13 02:43:38;;;;;;;0.10;0.10;;;;;;;;;;1865667;76;26163;-35
2022/12/13 02:46:06;;;;;;;2.05;0.40;;;;;;;;;;1863196;76;26646;-37
2022/12/13 02:48:38;;;;;;;0.30;0.30;;;;;;;;;;1864995;77;26317;-42
2022/12/13 02:51:06;;;;;;;0.20;0.20;;;;;;;;;;1858992;77;26214;-37
2022/12/13 02:53:34;;;;;;;0.30;0.30;;;;;;;;;;1866061;77;26171;-34
2022/12/13 02:56:01;;;;;;;0.23;0.23;;;;;;;;;;1866787;77;26247;-37
2022/12/13 02:58:30;;;;;;;0.20;0.20;;;;;;;;;;1860903;76;26191;-40
2022/12/13 03:01:08;;;;;;;0.40;0.20;;;;;;;;;;1862839;77;26279;-34
2022/12/13 03:03:42;;;;;;;0.33;0.33;;;;;;;;;;1866782;77;26608;-36
2022/12/13 03:06:29;;;;;;;0.20;0.20;;;;;;;;;;1856880;75;26219;-35
2022/12/13 03:09:06;;;;;;;0.10;0.10;;;;;;;;;;1867131;77;25910;-39
2022/12/13 03:13:59;;;;;;;0.20;0.20;;;;;;;;;;1808685;78;26287;-34
2022/12/13 03:16:35;;;;;;;0.30;0.30;;;;;;;;;;1850358;76;26170;-35
2022/12/13 03:19:04;;;;;;;0.20;0.20;;;;;;;;;;1861213;76;26257;-36
2022/12/13 03:21:38;;;;;;;0.10;0.10;;;;;;;;;;1866159;76;26187;-37
2022/12/13 03:24:06;;;;;;;0.20;0.20;;;;;;;;;;1867319;76;26159;-38
2022/12/13 03:26:33;;;;;;;0.15;0.15;;;;;;;;;;1861504;77;26701;-38
2022/12/13 03:29:01;;;;;;;0.30;0.30;;;;;;;;;;1868549;76;26151;-35
2022/12/13 03:31:28;;;;;;;0.30;0.30;;;;;;;;;;1858206;77;26202;-35
2022/12/13 03:33:55;;;;;;;0.20;0.20;;;;;;;;;;1868100;77;26588;-37
2022/12/13 03:36:23;;;;;;;0.20;0.20;;;;;;;;;;1857795;75;26707;-35
2022/12/13 03:38:51;;;;;;;0.13;0.13;;;;;;;;;;1868536;76;26237;-35
2022/12/13 03:41:20;;;;;;;0.47;0.30;;;;;;;;;;1868447;76;26248;-39
2022/12/13 03:43:47;;;;;;;0.20;0.20;;;;;;;;;;1867453;77;26690;-36
2022/12/13 03:46:14;;;;;;;0.20;0.20;;;;;;;;;;1867214;76;26202;-39
2022/12/13 03:48:42;;;;;;;0.20;0.20;;;;;;;;;;1863076;77;26222;-35
2022/12/13 03:51:09;;;;;;;0.20;0.20;;;;;;;;;;1867529;76;26628;-45
2022/12/13 03:53:36;;;;;;;0.25;0.25;;;;;;;;;;1867890;77;26729;-42
2022/12/13 03:56:05;;;;;;;0.30;0.30;;;;;;;;;;1862918;76;26685;-43
2022/12/13 03:58:33;;;;;;;0.30;0.30;;;;;;;;;;1860856;76;26267;-35
2022/12/13 04:01:00;;;;;;;0.30;0.30;;;;;;;;;;1866916;77;26271;-36
2022/12/13 04:03:27;;;;;;;0.45;0.20;;;;;;;;;;1868426;76;26163;-36
2022/12/13 04:05:54;;;;;;;0.20;0.20;;;;;;;;;;1863910;75;26252;-34
2022/12/13 04:08:22;;;;;;;0.20;0.20;;;;;;;;;;1874329;75;26143;-35
2022/12/13 04:10:49;;;;;;;0.20;0.20;;;;;;;;;;1865170;76;26202;-41
2022/12/13 04:13:31;;;;;;;0.20;0.10;;;;;;;;;;1858463;77;26279;-39
2022/12/13 04:15:59;;;;;;;0.30;0.30;;;;;;;;;;1868349;77;26241;-34
2022/12/13 04:18:26;;;;;;;0.50;0.50;;;;;;;;;;1868127;76;26647;-36
2022/12/13 04:20:53;;;;;;;0.30;0.30;;;;;;;;;;1860216;76;26209;-41
2022/12/13 04:23:21;;;;;;;0.30;0.30;;;;;;;;;;1861960;76;26329;-36
2022/12/13 04:25:49;;;;;;;0.30;0.30;;;;;;;;;;1856158;77;26615;-43
2022/12/13 04:28:16;;;;;;;0.33;0.33;;;;;;;;;;1865586;77;26687;-37
2022/12/13 04:30:43;;;;;;;0.40;0.40;;;;;;;;;;1868302;76;26682;-39
2022/12/13 04:33:10;;;;;;;0.30;0.30;;;;;;;;;;1862317;76;26265;-38
2022/12/13 04:35:38;;;;;;;0.80;0.50;;;;;;;;;;1868452;76;26164;-35
2022/12/13 04:38:05;;;;;;;0.23;0.23;;;;;;;;;;1868327;76;26206;-34
2022/12/13 04:40:32;;;;;;;0.20;0.20;;;;;;;;;;1868564;76;26206;-43
2022/12/13 04:42:59;;;;;;;0.40;0.40;;;;;;;;;;1853293;76;26186;-35
2022/12/13 04:45:27;;;;;;;1.10;0.30;;;;;;;;;;1858330;77;26209;-35
2022/12/13 04:47:55;;;;;;;0.30;0.30;;;;;;;;;;1867964;77;26167;-40
2022/12/13 04:50:22;;;;;;;0.20;0.20;;;;;;;;;;1867748;76;26258;-43
2022/12/13 04:52:49;;;;;;;0.20;0.20;;;;;;;;;;1868154;76;26175;-35
2022/12/13 04:55:17;;;;;;;0.28;0.28;;;;;;;;;;1863878;76;26644;-36
2022/12/13 04:57:44;;;;;;;0.30;0.30;;;;;;;;;;1851281;77;26223;-36
2022/12/13 05:00:14;;;;;;;0.40;0.40;;;;;;;;;;1854297;77;26243;-37
2022/12/13 05:02:42;;;;;;;0.20;0.20;;;;;;;;;;1853303;77;26320;-43
2022/12/13 05:05:09;;;;;;;0.40;0.40;;;;;;;;;;1841621;76;26304;-37
2022/12/13 05:07:37;;;;;;;0.30;0.30;;;;;;;;;;1865413;76;26779;-36
2022/12/13 05:10:05;;;;;;;0.30;0.30;;;;;;;;;;1850393;77;26157;-36
2022/12/13 05:12:32;;;;;;;0.20;0.20;;;;;;;;;;1860228;77;26826;-39
2022/12/13 05:15:00;;;;;;;0.20;0.20;;;;;;;;;;1860428;77;26303;-38
2022/12/13 05:17:27;;;;;;;0.35;0.35;;;;;;;;;;1860205;77;26196;-37
2022/12/13 05:19:54;;;;;;;0.23;0.23;;;;;;;;;;1858907;76;26176;-41
2022/12/13 05:22:21;;;;;;;0.25;0.25;;;;;;;;;;1859140;77;26168;-38
2022/12/13 05:24:49;;;;;;;0.20;0.20;;;;;;;;;;1857125;77;26336;-40
2022/12/13 05:27:16;;;;;;;0.23;0.23;;;;;;;;;;1851288;77;26233;-37
2022/12/13 05:29:43;;;;;;;0.20;0.20;;;;;;;;;;1855974;77;26336;-39
2022/12/13 05:32:11;;;;;;;0.20;0.20;;;;;;;;;;1858001;77;26206;-38
2022/12/13 05:34:38;;;;;;;0.23;0.23;;;;;;;;;;1845555;77;26151;-39
2022/12/13 05:37:05;;;;;;;0.30;0.30;;;;;;;;;;1843874;77;26139;-35
2022/12/13 05:39:32;;;;;;;0.30;0.30;;;;;;;;;;1858828;77;26321;-35
2022/12/13 05:42:00;;;;;;;0.30;0.30;;;;;;;;;;1860400;77;26200;-36
2022/12/13 05:44:27;;;;;;;0.20;0.20;;;;;;;;;;1854929;77;26277;-35
2022/12/13 05:46:54;;;;;;;0.20;0.20;;;;;;;;;;1854466;77;26302;-37
2022/12/13 05:49:21;;;;;;;0.30;0.30;;;;;;;;;;1855189;76;26227;-44
2022/12/13 05:51:49;;;;;;;0.30;0.30;;;;;;;;;;1854182;77;26286;-38
2022/12/13 05:54:16;;;;;;;0.23;0.23;;;;;;;;;;1852699;77;26344;-36
2022/12/13 05:56:43;;;;;;;0.30;0.30;;;;;;;;;;1851916;77;26809;-36
2022/12/13 05:59:11;;;;;;;0.30;0.30;;;;;;;;;;1857882;77;26677;-40
2022/12/13 06:01:38;;;;;;;0.28;0.28;;;;;;;;;;1848722;77;26293;-35
2022/12/13 06:04:05;;;;;;;0.40;0.40;;;;;;;;;;1853822;77;26272;-35
2022/12/13 06:06:33;;;;;;;0.30;0.30;;;;;;;;;;1855076;77;26292;-36
2022/12/13 06:09:00;;;;;;;0.20;0.20;;;;;;;;;;1855715;77;26601;-35
2022/12/13 06:11:27;;;;;;;0.30;0.30;;;;;;;;;;1852556;77;26748;-35
2022/12/13 06:13:54;;;;;;;0.30;0.30;;;;;;;;;;1860448;77;26893;-35
2022/12/13 06:16:22;;;;;;;0.20;0.20;;;;;;;;;;1859275;77;26792;-38
2022/12/13 06:18:49;;;;;;;0.30;0.30;;;;;;;;;;1859565;76;26246;-35
2022/12/13 06:21:16;;;;;;;0.20;0.20;;;;;;;;;;1852188;77;26379;-38
2022/12/13 06:23:43;;;;;;;0.53;0.23;;;;;;;;;;1857780;77;26346;-35
2022/12/13 06:26:11;;;;;;;0.40;0.40;;;;;;;;;;1860451;77;26317;-37
2022/12/13 06:28:38;;;;;;;0.30;0.30;;;;;;;;;;1860122;77;26212;-37
2022/12/13 06:31:05;;;;;;;0.30;0.30;;;;;;;;;;1852050;77;26287;-35
2022/12/13 06:33:37;;;;;;;0.30;0.30;;;;;;;;;;1860234;77;26227;-43
2022/12/13 06:36:05;;;;;;;0.40;0.40;;;;;;;;;;1860452;77;26180;-36
2022/12/13 06:38:32;;;;;;;0.20;0.20;;;;;;;;;;1849384;77;26254;-40
2022/12/13 06:41:06;;;;;;;0.30;0.30;;;;;;;;;;1847163;77;26270;-34
2022/12/13 06:43:34;;;;;;;0.28;0.28;;;;;;;;;;1854812;77;26290;-41
2022/12/13 06:46:03;;;;;;;0.20;0.20;;;;;;;;;;1854435;77;26266;-38
2022/12/13 06:48:30;;;;;;;5.20;0.75;;;;;;;;;;1857162;77;26200;-39
2022/12/13 06:51:01;;;;;;;5.87;0.80;;;;;;;;;;1847906;77;26242;-35
2022/12/13 06:53:29;;;;;;;11.93;1.12;;;;;;;;;;1849929;77;26267;-35
2022/12/13 06:55:56;;;;;;;7.97;0.80;;;;;;;;;;1852799;77;26242;-37
2022/12/13 06:58:24;;;;;;;19.27;0.80;;;;;;;;;;1864897;77;26951;-35
2022/12/13 07:00:52;;;;;;;1.42;0.60;;;;;;;;;;1854857;77;26265;-35
2022/12/13 07:03:20;;;;;;;2.60;0.50;;;;;;;;;;1854770;77;26167;-42
2022/12/13 07:05:47;;;;;;;1.62;1.00;;;;;;;;;;1861631;77;26296;-38
2022/12/13 07:08:14;;;;;;;2.08;0.50;;;;;;;;;;1863804;76;25622;-37
2022/12/13 07:10:41;;;;;;;2.67;0.50;;;;;;;;;;1859538;76;26715;-40
2022/12/13 07:13:09;;;;;;;0.50;0.47;;;;;;;;;;1862903;76;26601;-39
2022/12/13 07:15:36;;;;;;;2.05;0.53;;;;;;;;;;1862206;76;26682;-42
2022/12/13 07:18:03;;;;;;;0.98;0.53;;;;;;;;;;1859969;77;26269;-35
2022/12/13 07:20:31;;;;;;;2.40;0.65;;;;;;;;;;1865351;77;26337;-49
2022/12/13 07:22:58;;;;;;;1.05;0.40;;;;;;;;;;1864416;77;26282;-41
2022/12/13 07:25:25;;;;;;;0.40;0.40;;;;;;;;;;1856411;77;26183;-39
2022/12/13 07:27:57;;;;;;;0.98;0.50;;;;;;;;;;1858903;77;26168;-37
2022/12/13 07:30:24;;;;;;;0.45;0.35;;;;;;;;;;1860747;76;26277;-44
2022/12/13 07:32:51;;;;;;;0.40;0.40;;;;;;;;;;1856701;76;26280;-35
2022/12/13 07:35:19;;;;;;;0.42;0.42;;;;;;;;;;1864439;76;25567;-39
2022/12/13 07:37:46;;;;;;;0.40;0.37;;;;;;;;;;1864989;76;26680;-39
2022/12/13 07:40:13;;;;;;;0.40;0.40;;;;;;;;;;1857312;76;26755;-36
2022/12/13 07:42:40;;;;;;;1.52;0.42;;;;;;;;;;1863906;77;26593;-37
2022/12/13 07:45:08;;;;;;;0.40;0.40;;;;;;;;;;1862258;77;26163;-38
2022/12/13 07:47:35;;;;;;;0.30;0.30;;;;;;;;;;1859786;77;26207;-40
2022/12/13 07:50:02;;;;;;;0.35;0.35;;;;;;;;;;1862732;77;26250;-35
2022/12/13 07:52:30;;;;;;;1.47;0.30;;;;;;;;;;1862236;77;27229;-45
2022/12/13 07:54:57;;;;;;;0.85;0.35;;;;;;;;;;1862948;77;26659;-39
2022/12/13 07:57:24;;;;;;;0.47;0.47;;;;;;;;;;1853251;77;26351;-37
2022/12/13 07:59:52;;;;;;;0.35;0.35;;;;;;;;;;1838660;77;26292;-42
2022/12/13 08:02:19;;;;;;;0.40;0.40;;;;;;;;;;1847876;77;27381;-38
2022/12/13 08:04:46;;;;;;;1.15;0.40;;;;;;;;;;1850357;77;26592;-45
2022/12/13 08:07:13;;;;;;;0.80;0.30;;;;;;;;;;1840102;77;26654;-44
2022/12/13 08:09:41;;;;;;;0.62;0.50;;;;;;;;;;1850619;77;26679;-44
2022/12/13 08:12:08;;;;;;;0.30;0.30;;;;;;;;;;1846326;77;26190;-37
2022/12/13 08:14:35;;;;;;;0.80;0.40;;;;;;;;;;1841306;77;26197;-36
2022/12/13 08:17:02;;;;;;;4.72;0.50;;;;;;;;;;1837832;77;26229;-39
2022/12/13 08:19:30;;;;;;;0.68;0.33;;;;;;;;;;1838447;77;26194;-37
2022/12/13 08:21:57;;;;;;;2.08;0.47;;;;;;;;;;1837312;77;26318;-44
2022/12/13 08:24:26;;;;;;;3.77;0.40;;;;;;;;;;1838093;77;26202;-40
2022/12/13 08:26:53;;;;;;;1.32;0.45;;;;;;;;;;1846601;77;26218;-40
2022/12/13 08:29:20;;;;;;;2.50;0.50;;;;;;;;;;1851356;77;26156;-40
2022/12/13 08:31:48;;;;;;;2.67;0.50;;;;;;;;;;1849299;77;26160;-38
2022/12/13 08:34:15;;;;;;;0.80;0.40;;;;;;;;;;1849549;77;26164;-39
2022/12/13 08:36:42;;;;;;;3.45;0.53;;;;;;;;;;1845031;77;26171;-37
2022/12/13 08:39:09;;;;;;;8.40;0.55;;;;;;;;;;1850613;77;26206;-53
2022/12/13 08:41:37;;;;;;;1.35;0.55;;;;;;;;;;1847284;77;26580;-42
2022/12/13 08:44:04;;;;;;;1.70;0.53;;;;;;;;;;1838045;77;26243;-43
2022/12/13 08:46:31;;;;;;;1.30;0.60;;;;;;;;;;1846790;77;26744;-49
2022/12/13 08:48:59;;;;;;;0.40;0.40;;;;;;;;;;1848557;77;26727;-39
2022/12/13 08:51:26;;;;;;;0.57;0.45;;;;;;;;;;1837609;77;26164;-39
2022/12/13 08:53:53;;;;;;;3.37;0.50;;;;;;;;;;1848512;77;26176;-37
2022/12/13 08:56:21;;;;;;;0.40;0.40;;;;;;;;;;1845855;77;26214;-40
2022/12/13 08:58:50;;;;;;;3.22;0.60;;;;;;;;;;1865842;77;26652;-37
2022/12/13 09:01:17;;;;;;;1.70;0.50;;;;;;;;;;1858400;76;26684;-40
2022/12/13 09:03:44;;;;;;;2.67;0.50;;;;;;;;;;1865143;75;26569;-36
2022/12/13 09:06:13;;;;;;;1.90;0.50;;;;;;;;;;1866631;76;26144;-39
2022/12/13 09:08:40;;;;;;;2.70;0.50;;;;;;;;;;1863443;75;26155;-36
2022/12/13 09:11:09;;;;;;;1.40;0.45;;;;;;;;;;1866494;76;26198;-40
2022/12/13 09:13:37;;;;;;;0.50;0.50;;;;;;;;;;1863301;77;26144;-37
2022/12/13 09:16:08;;;;;;;3.47;0.50;;;;;;;;;;1865546;76;26186;-35
2022/12/13 09:18:36;;;;;;;0.50;0.50;;;;;;;;;;1867049;77;26195;-38
2022/12/13 09:21:09;;;;;;;0.40;0.40;;;;;;;;;;1866159;76;26886;-35
2022/12/13 09:23:37;;;;;;;1.62;0.78;;;;;;;;;;1853374;77;26155;-38
2022/12/13 09:26:04;;;;;;;0.40;0.40;;;;;;;;;;1867303;76;26194;-35
2022/12/13 09:28:31;;;;;;;0.65;0.47;;;;;;;;;;1862391;76;26758;-43
2022/12/13 09:30:59;;;;;;;1.85;0.53;;;;;;;;;;1862362;76;26172;-41
2022/12/13 09:33:26;;;;;;;0.47;0.47;;;;;;;;;;1866869;77;26277;-43
2022/12/13 09:35:53;;;;;;;0.95;0.50;;;;;;;;;;1864854;75;26323;-38
2022/12/13 09:38:21;;;;;;;0.53;0.40;;;;;;;;;;1860878;75;26155;-39
2022/12/13 09:40:49;;;;;;;0.75;0.65;;;;;;;;;;1865262;75;25601;-38
2022/12/13 09:43:18;;;;;;;0.65;0.40;;;;;;;;;;1860196;77;26206;-36
2022/12/13 09:45:46;;;;;;;0.57;0.50;;;;;;;;;;1858935;77;26214;-38
2022/12/13 09:48:18;;;;;;;0.62;0.62;;;;;;;;;;1865483;77;26273;-37
2022/12/13 09:50:45;;;;;;;0.40;0.40;;;;;;;;;;1860229;76;26205;-39
2022/12/13 09:53:14;;;;;;;0.40;0.40;;;;;;;;;;1861186;76;26600;-38
2022/12/13 09:55:42;;;;;;;0.40;0.40;;;;;;;;;;1867618;76;26290;-38
2022/12/13 09:58:13;;;;;;;0.37;0.37;;;;;;;;;;1866135;76;26289;-36
2022/12/13 10:00:41;;;;;;;0.65;0.65;;;;;;;;;;1863714;77;26218;-35
2022/12/13 10:03:10;;;;;;;0.30;0.30;;;;;;;;;;1858524;77;26644;-35
2022/12/13 10:05:37;;;;;;;2.15;0.80;;;;;;;;;;1862300;76;26207;-38
2022/12/13 10:08:06;;;;;;;0.45;0.25;;;;;;;;;;1866421;77;26198;-35
2022/12/13 10:10:33;;;;;;;1.10;0.50;;;;;;;;;;1853235;77;26365;-38
2022/12/13 10:13:08;;;;;;;0.35;0.30;;;;;;;;;;1862310;77;26151;-45
2022/12/13 10:15:37;;;;;;;0.37;0.37;;;;;;;;;;1851180;76;26514;-36
2022/12/13 10:18:06;;;;;;;0.42;0.25;;;;;;;;;;1868710;75;26215;-43
2022/12/13 10:20:34;;;;;;;0.47;0.30;;;;;;;;;;1865609;76;26221;-39
2022/12/13 10:23:01;;;;;;;1.80;0.40;;;;;;;;;;1869261;75;26156;-34
2022/12/13 10:25:36;;;;;;;0.78;0.40;;;;;;;;;;1861098;77;26147;-39
2022/12/13 10:28:04;;;;;;;0.30;0.30;;;;;;;;;;1846425;76;26223;-39
2022/12/13 10:30:33;;;;;;;0.50;0.50;;;;;;;;;;1860231;75;26168;-38
2022/12/13 10:33:02;;;;;;;0.30;0.30;;;;;;;;;;1861688;75;26199;-37
2022/12/13 10:35:34;;;;;;;1.40;0.53;;;;;;;;;;1856672;75;26204;-37
2022/12/13 10:38:01;;;;;;;0.47;0.47;;;;;;;;;;1865928;76;26293;-37
2022/12/13 10:40:33;;;;;;;0.33;0.33;;;;;;;;;;1860968;75;26167;-34
2022/12/13 10:43:19;;;;;;;0.30;0.30;;;;;;;;;;1866366;75;26210;-41
2022/12/13 10:45:57;;;;;;;0.40;0.40;;;;;;;;;;1861857;76;26156;-35
2022/12/13 10:48:26;;;;;;;0.60;0.40;;;;;;;;;;1862445;76;26241;-37
2022/12/13 10:51:06;;;;;;;1.02;0.50;;;;;;;;;;1862458;77;26179;-37
2022/12/13 10:53:35;;;;;;;0.30;0.30;;;;;;;;;;1849172;77;26218;-39
2022/12/13 10:56:02;;;;;;;0.30;0.30;;;;;;;;;;1862719;76;26202;-35
2022/12/13 10:58:37;;;;;;;0.40;0.30;;;;;;;;;;1867576;76;26272;-35
2022/12/13 11:01:09;;;;;;;1.45;0.40;;;;;;;;;;1874338;76;26226;-41
2022/12/13 11:03:36;;;;;;;0.45;0.45;;;;;;;;;;1866468;76;26283;-39
2022/12/13 11:06:14;;;;;;;0.75;0.37;;;;;;;;;;1875070;75;26233;-38
2022/12/13 11:08:41;;;;;;;1.07;0.40;;;;;;;;;;1870626;75;26275;-36
2022/12/13 11:11:11;;;;;;;2.15;0.50;;;;;;;;;;1873196;76;26171;-36
2022/12/13 11:13:39;;;;;;;0.95;0.40;;;;;;;;;;1873680;76;26721;-47
2022/12/13 11:16:25;;;;;;;0.47;0.47;;;;;;;;;;1870483;76;26730;-35
2022/12/13 11:18:54;;;;;;;0.55;0.45;;;;;;;;;;1871751;76;26276;-35
2022/12/13 11:21:22;;;;;;;0.50;0.50;;;;;;;;;;1870646;76;26291;-41
2022/12/13 11:23:50;;;;;;;0.40;0.40;;;;;;;;;;1870732;76;26166;-41
2022/12/13 11:26:18;;;;;;;0.65;0.60;;;;;;;;;;1872543;76;26614;-41
2022/12/13 11:28:53;;;;;;;0.45;0.45;;;;;;;;;;1872536;76;26171;-44
2022/12/13 11:31:30;;;;;;;0.37;0.37;;;;;;;;;;1872242;76;26257;-38
2022/12/13 11:34:03;;;;;;;1.17;0.60;;;;;;;;;;1866918;76;26601;-43
2022/12/13 11:36:43;;;;;;;0.42;0.40;;;;;;;;;;1865818;76;26257;-39
2022/12/13 11:39:18;;;;;;;0.47;0.47;;;;;;;;;;1870078;76;26159;-39
2022/12/13 11:42:05;;;;;;;0.40;0.40;;;;;;;;;;1872788;76;26565;-36
2022/12/13 11:44:42;;;;;;;0.70;0.70;;;;;;;;;;1867057;76;26192;-41
2022/12/13 11:47:14;;;;;;;0.40;0.40;;;;;;;;;;1873259;76;26165;-39
2022/12/13 11:49:44;;;;;;;1.40;0.42;;;;;;;;;;1874183;76;26357;-42
2022/12/13 11:52:29;;;;;;;0.50;0.50;;;;;;;;;;1872266;76;26276;-39
2022/12/13 11:55:04;;;;;;;1.45;0.50;;;;;;;;;;1867893;76;26213;-43
2022/12/13 11:57:39;;;;;;;0.47;0.47;;;;;;;;;;1872886;75;26194;-36
2022/12/13 12:00:20;;;;;;;0.40;0.40;;;;;;;;;;1862853;75;26871;-42
2022/12/13 12:02:49;;;;;;;0.40;0.40;;;;;;;;;;1860869;76;26151;-39
2022/12/13 12:05:17;;;;;;;0.40;0.40;;;;;;;;;;1863391;76;26249;-35
2022/12/13 12:07:46;;;;;;;2.60;0.55;;;;;;;;;;1867612;75;26221;-38
2022/12/13 12:10:15;;;;;;;0.65;0.60;;;;;;;;;;1865852;75;26683;-37
2022/12/13 12:12:44;;;;;;;0.60;0.60;;;;;;;;;;1867422;76;26313;-35
2022/12/13 12:15:16;;;;;;;1.27;0.70;;;;;;;;;;1865601;76;26544;-38
2022/12/13 12:17:43;;;;;;;1.77;0.42;;;;;;;;;;1855337;76;26202;-36
2022/12/13 12:20:12;;;;;;;1.67;0.70;;;;;;;;;;1865415;76;26679;-38
2022/12/13 12:22:50;;;;;;;1.02;0.70;;;;;;;;;;1863345;76;26610;-37
2022/12/13 12:25:27;;;;;;;0.60;0.60;;;;;;;;;;1861395;76;26285;-40
2022/12/13 12:28:08;;;;;;;0.70;0.70;;;;;;;;;;1861816;76;26156;-39
2022/12/13 12:30:43;;;;;;;0.93;0.88;;;;;;;;;;1865221;76;26163;-38
2022/12/13 12:33:24;;;;;;;0.72;0.72;;;;;;;;;;1860645;76;26789;-41
2022/12/13 12:36:11;;;;;;;0.68;0.68;;;;;;;;;;1862956;76;26198;-35
2022/12/13 12:38:49;;;;;;;2.47;0.70;;;;;;;;;;1863147;76;26253;-50
2022/12/13 12:41:17;;;;;;;0.80;0.80;;;;;;;;;;1865749;76;26577;-48
2022/12/13 12:43:46;;;;;;;0.82;0.70;;;;;;;;;;1865123;76;26625;-43
2022/12/13 12:46:15;;;;;;;0.98;0.57;;;;;;;;;;1863050;76;26226;-39
2022/12/13 12:48:52;;;;;;;0.98;0.93;;;;;;;;;;1866222;76;26195;-40
2022/12/13 12:51:33;;;;;;;0.70;0.70;;;;;;;;;;1862409;76;26550;-39
2022/12/13 12:54:10;;;;;;;0.70;0.70;;;;;;;;;;1861444;76;26311;-38
2022/12/13 12:56:41;;;;;;;0.70;0.70;;;;;;;;;;1831778;76;26207;-37
2022/12/13 12:59:13;;;;;;;0.95;0.70;;;;;;;;;;1852764;76;26620;-45
2022/12/13 13:01:51;;;;;;;0.88;0.88;;;;;;;;;;1868867;76;26681;-36
2022/12/13 13:04:19;;;;;;;1.50;1.40;;;;;;;;;;1871136;76;26624;-39
2022/12/13 13:06:48;;;;;;;1.57;1.32;;;;;;;;;;1869966;75;26622;-38
2022/12/13 13:09:17;;;;;;;1.77;1.67;;;;;;;;;;1869293;75;26166;-39
2022/12/13 13:11:46;;;;;;;3.33;2.10;;;;;;;;;;1870408;76;26636;-39
2022/12/13 13:14:33;;;;;;;3.72;2.20;;;;;;;;;;1872853;76;26259;-36
2022/12/13 13:17:02;;;;;;;4.47;2.80;;;;;;;;;;1867536;76;26582;-41
2022/12/13 13:19:34;;;;;;;6.67;3.10;;;;;;;;;;1878753;75;26716;-39
2022/12/13 13:22:03;;;;;;;5.78;4.10;;;;;;;;;;1874216;76;26218;-39
2022/12/13 13:24:31;;;;;;;9.20;5.03;;;;;;;;;;1865584;76;26159;-37
2022/12/13 13:27:00;;;;;;;11.85;5.70;;;;;;;;;;1865851;76;26608;-41
2022/12/13 13:29:32;;;;;;;13.20;6.10;;;;;;;;;;1868105;76;26773;-40
2022/12/13 13:32:04;;;;;;;11.33;6.83;;;;;;;;;;1866509;76;26197;-39
2022/12/13 13:34:35;;;;;;;12.82;7.05;;;;;;;;;;1875515;76;26565;-37
2022/12/13 13:37:03;;;;;;;13.18;7.72;;;;;;;;;;1869160;76;26280;-42
2022/12/13 13:39:37;;;;;;;14.00;7.95;;;;;;;;;;1874021;76;26687;-38
2022/12/13 13:42:15;;;;;;;12.58;7.67;;;;;;;;;;1872619;76;26637;-36
2022/12/13 13:44:46;;;;;;;12.53;7.72;;;;;;;;;;1866963;76;26612;-53
2022/12/13 13:47:24;;;;;;;13.53;8.20;;;;;;;;;;1870140;76;26818;-37
2022/12/13 13:50:04;;;;;;;13.58;8.25;;;;;;;;;;1873957;76;26233;-37
2022/12/13 13:52:33;;;;;;;13.65;8.28;;;;;;;;;;1860359;76;26214;-46
2022/12/13 13:55:17;;;;;;;14.33;7.90;;;;;;;;;;1853245;76;26206;-37
2022/12/13 13:57:45;;;;;;;13.62;7.95;;;;;;;;;;1869841;76;26218;-42
2022/12/13 14:00:17;;;;;;;11.43;7.03;;;;;;;;;;1869847;76;26232;-35
2022/12/13 14:02:49;;;;;;;12.00;7.08;;;;;;;;;;1872467;76;26218;-42
2022/12/13 14:05:20;;;;;;;10.65;6.85;;;;;;;;;;1870775;76;26710;-37
2022/12/13 14:07:52;;;;;;;12.20;7.08;;;;;;;;;;1868908;75;26324;-44
2022/12/13 14:10:23;;;;;;;10.35;6.80;;;;;;;;;;1873362;76;26136;-36
2022/12/13 14:13:04;;;;;;;9.93;5.90;;;;;;;;;;1870350;76;26168;-35
2022/12/13 14:15:45;;;;;;;9.65;6.03;;;;;;;;;;1871316;76;26217;-38
2022/12/13 14:18:20;;;;;;;9.43;5.75;;;;;;;;;;1863606;76;26247;-42
2022/12/13 14:21:03;;;;;;;9.88;5.53;;;;;;;;;;1859828;76;26199;-37
2022/12/13 14:23:45;;;;;;;7.83;5.10;;;;;;;;;;1869409;76;26163;-44
2022/12/13 14:26:30;;;;;;;6.33;4.70;;;;;;;;;;1861964;76;26198;-37
2022/12/13 14:28:58;;;;;;;6.55;4.60;;;;;;;;;;1874121;76;26214;-35
2022/12/13 14:31:27;;;;;;;6.42;4.10;;;;;;;;;;1872456;76;26178;-35
2022/12/13 14:33:55;;;;;;;5.47;4.15;;;;;;;;;;1871654;76;26274;-39
2022/12/13 14:36:27;;;;;;;5.50;3.90;;;;;;;;;;1871929;76;26280;-41
2022/12/13 14:39:01;;;;;;;4.40;3.45;;;;;;;;;;1871202;76;26186;-35
2022/12/13 14:41:28;;;;;;;5.53;3.62;;;;;;;;;;1870528;75;26163;-39
2022/12/13 14:43:57;;;;;;;4.87;3.70;;;;;;;;;;1874039;75;26210;-40
2022/12/13 14:46:25;;;;;;;3.42;3.12;;;;;;;;;;1867648;76;26310;-40
2022/12/13 14:48:53;;;;;;;3.72;3.20;;;;;;;;;;1868646;76;26648;-36
2022/12/13 14:51:21;;;;;;;11.18;3.58;;;;;;;;;;1874680;76;26204;-37
2022/12/13 14:53:50;;;;;;;2.98;2.75;;;;;;;;;;1871930;76;26328;-40
2022/12/13 14:56:17;;;;;;;2.92;2.72;;;;;;;;;;1871319;76;26163;-40
2022/12/13 14:58:54;;;;;;;2.87;2.50;;;;;;;;;;1872107;75;26339;-38
2022/12/13 15:01:26;;;;;;;2.70;2.50;;;;;;;;;;1861692;77;26263;-42